RYR425 RPLL-RPVE
Flight info
| Callsign | RYR425 |
|---|---|
| Flight time | 0h 40m |
| Altitude | 25000 |
| Route | VERDE2R VERDE W24 TAPER TAPER7A |
| Aircraft | B738/M-SDE2E3FGHIRWXY/LB1 |
Departure
| Time | 2026-05-05 12:11 |
|---|---|
| Airport | Ninoy Aquino International Airport (RPLL) |
Arrival
| Time | 2026-05-05 12:51 |
|---|---|
| Airport | Godofredo P. Ramos Airport (RPVE) |
| Time | Latitude | Longitude | Altitude | Speed | Heading |
|---|---|---|---|---|---|
| 2026-05-05 11:41 | 14.50883 | 121.01334 | 81 ft | 0 kts | 329° |
| 2026-05-05 12:01 | 14.50883 | 121.01335 | 82 ft | 0 kts | 329° |
| 2026-05-05 12:01 | 14.50872 | 121.01342 | 82 ft | 2 kts | 329° |
| 2026-05-05 12:02 | 14.50859 | 121.01350 | 82 ft | 2 kts | 329° |
| 2026-05-05 12:02 | 14.50846 | 121.01357 | 82 ft | 2 kts | 329° |
| 2026-05-05 12:02 | 14.50833 | 121.01366 | 82 ft | 2 kts | 329° |
| 2026-05-05 12:02 | 14.50823 | 121.01371 | 82 ft | 0 kts | 329° |
| 2026-05-05 12:03 | 14.50812 | 121.01379 | 82 ft | 2 kts | 307° |
| 2026-05-05 12:03 | 14.50805 | 121.01393 | 82 ft | 2 kts | 283° |
| 2026-05-05 12:03 | 14.50805 | 121.01408 | 82 ft | 2 kts | 258° |
| 2026-05-05 12:03 | 14.50808 | 121.01418 | 82 ft | 0 kts | 242° |
| 2026-05-05 12:04 | 14.50811 | 121.01424 | 82 ft | 0 kts | 239° |
| 2026-05-05 12:06 | 14.50796 | 121.01397 | 82 ft | 10 kts | 239° |
| 2026-05-05 12:07 | 14.50762 | 121.01336 | 82 ft | 8 kts | 242° |
| 2026-05-05 12:07 | 14.50722 | 121.01311 | 82 ft | 6 kts | 171° |
| 2026-05-05 12:07 | 14.50678 | 121.01318 | 82 ft | 6 kts | 204° |
| 2026-05-05 12:07 | 14.50650 | 121.01283 | 81 ft | 6 kts | 239° |
| 2026-05-05 12:08 | 14.50609 | 121.01211 | 82 ft | 18 kts | 240° |
| 2026-05-05 12:08 | 14.50540 | 121.01086 | 82 ft | 20 kts | 240° |
| 2026-05-05 12:08 | 14.50469 | 121.00958 | 82 ft | 20 kts | 241° |
| 2026-05-05 12:08 | 14.50385 | 121.00809 | 82 ft | 30 kts | 239° |
| 2026-05-05 12:09 | 14.50293 | 121.00645 | 82 ft | 24 kts | 242° |
| 2026-05-05 12:09 | 14.50208 | 121.00490 | 81 ft | 24 kts | 240° |
| 2026-05-05 12:09 | 14.50125 | 121.00339 | 81 ft | 24 kts | 239° |
| 2026-05-05 12:09 | 14.50042 | 121.00189 | 81 ft | 23 kts | 240° |
| 2026-05-05 12:10 | 14.49965 | 121.00051 | 82 ft | 20 kts | 240° |
| 2026-05-05 12:10 | 14.49890 | 120.99963 | 82 ft | 12 kts | 184° |
| 2026-05-05 12:10 | 14.49817 | 121.00003 | 82 ft | 11 kts | 128° |
| 2026-05-05 12:10 | 14.49823 | 121.00082 | 82 ft | 13 kts | 60° |
| 2026-05-05 12:11 | 14.49959 | 121.00328 | 82 ft | 77 kts | 60° |
| 2026-05-05 12:11 | 14.50350 | 121.01032 | 82 ft | 144 kts | 61° |
| 2026-05-05 12:11 | 14.50913 | 121.02056 | 438 ft | 168 kts | 63° |
| 2026-05-05 12:11 | 14.51415 | 121.03046 | 1422 ft | 154 kts | 64° |
| 2026-05-05 12:12 | 14.51956 | 121.03976 | 2127 ft | 154 kts | 60° |
| 2026-05-05 12:12 | 14.52525 | 121.04924 | 2680 ft | 161 kts | 61° |
| 2026-05-05 12:12 | 14.53095 | 121.05942 | 3278 ft | 166 kts | 62° |
| 2026-05-05 12:12 | 14.53681 | 121.07003 | 3795 ft | 178 kts | 61° |
| 2026-05-05 12:13 | 14.54320 | 121.08157 | 4271 ft | 194 kts | 61° |
| 2026-05-05 12:13 | 14.55014 | 121.09409 | 4834 ft | 207 kts | 60° |
| 2026-05-05 12:13 | 14.55749 | 121.10738 | 5342 ft | 223 kts | 62° |
| 2026-05-05 12:13 | 14.56323 | 121.12280 | 5846 ft | 241 kts | 81° |
| 2026-05-05 12:14 | 14.56159 | 121.14029 | 6422 ft | 257 kts | 110° |
| 2026-05-05 12:14 | 14.55172 | 121.15614 | 7024 ft | 273 kts | 130° |
| 2026-05-05 12:14 | 14.53824 | 121.17020 | 7748 ft | 280 kts | 134° |
| 2026-05-05 12:14 | 14.52416 | 121.18433 | 8636 ft | 283 kts | 133° |
| 2026-05-05 12:15 | 14.51029 | 121.19835 | 9502 ft | 286 kts | 134° |
| 2026-05-05 12:15 | 14.49494 | 121.21154 | 10323 ft | 293 kts | 144° |
| 2026-05-05 12:15 | 14.47603 | 121.22032 | 10987 ft | 308 kts | 164° |
| 2026-05-05 12:15 | 14.45437 | 121.22227 | 11790 ft | 318 kts | 181° |
| 2026-05-05 12:16 | 14.43207 | 121.21849 | 12425 ft | 332 kts | 193° |
| 2026-05-05 12:16 | 14.41063 | 121.20856 | 13016 ft | 346 kts | 214° |
| 2026-05-05 12:16 | 14.39277 | 121.19169 | 13823 ft | 352 kts | 226° |
| 2026-05-05 12:16 | 14.37626 | 121.17271 | 14611 ft | 357 kts | 228° |
| 2026-05-05 12:17 | 14.36016 | 121.15364 | 15418 ft | 361 kts | 228° |
| 2026-05-05 12:17 | 14.34348 | 121.13396 | 16220 ft | 364 kts | 228° |
| 2026-05-05 12:17 | 14.32673 | 121.11441 | 16983 ft | 368 kts | 227° |
| 2026-05-05 12:17 | 14.30964 | 121.09464 | 17788 ft | 370 kts | 227° |
| 2026-05-05 12:18 | 14.29207 | 121.07491 | 18533 ft | 374 kts | 225° |
| 2026-05-05 12:18 | 14.27325 | 121.05634 | 19222 ft | 378 kts | 219° |
| 2026-05-05 12:18 | 14.25258 | 121.03970 | 19920 ft | 381 kts | 215° |
| 2026-05-05 12:18 | 14.23046 | 121.02383 | 20656 ft | 383 kts | 213° |
| 2026-05-05 12:19 | 14.20826 | 121.00861 | 21312 ft | 387 kts | 212° |
| 2026-05-05 12:19 | 14.18574 | 120.99332 | 21947 ft | 390 kts | 212° |
| 2026-05-05 12:19 | 14.16313 | 120.97788 | 22591 ft | 393 kts | 213° |
| 2026-05-05 12:19 | 14.14043 | 120.96225 | 23210 ft | 396 kts | 213° |
| 2026-05-05 12:20 | 14.11717 | 120.94610 | 23815 ft | 400 kts | 213° |
| 2026-05-05 12:20 | 14.09397 | 120.93040 | 24506 ft | 399 kts | 211° |
| 2026-05-05 12:20 | 14.06928 | 120.91681 | 24858 ft | 401 kts | 202° |
| 2026-05-05 12:20 | 14.04269 | 120.90857 | 24897 ft | 399 kts | 189° |
| 2026-05-05 12:21 | 14.01503 | 120.90627 | 24900 ft | 396 kts | 179° |
| 2026-05-05 12:21 | 13.98762 | 120.90872 | 24900 ft | 395 kts | 171° |
| 2026-05-05 12:21 | 13.96045 | 120.91393 | 24896 ft | 394 kts | 167° |
| 2026-05-05 12:21 | 13.93390 | 120.92025 | 24894 ft | 395 kts | 166° |
| 2026-05-05 12:22 | 13.90723 | 120.92715 | 24897 ft | 395 kts | 165° |
| 2026-05-05 12:22 | 13.88042 | 120.93428 | 24898 ft | 394 kts | 165° |
| 2026-05-05 12:22 | 13.85356 | 120.94143 | 24894 ft | 394 kts | 165° |
| 2026-05-05 12:22 | 13.82686 | 120.94849 | 24893 ft | 394 kts | 165° |
| 2026-05-05 12:23 | 13.80013 | 120.95551 | 24896 ft | 393 kts | 166° |
| 2026-05-05 12:23 | 13.77362 | 120.96240 | 24891 ft | 393 kts | 166° |
| 2026-05-05 12:23 | 13.74721 | 120.96924 | 24888 ft | 394 kts | 166° |
| 2026-05-05 12:23 | 13.72052 | 120.97611 | 24890 ft | 394 kts | 166° |
| 2026-05-05 12:24 | 13.69360 | 120.98302 | 24892 ft | 394 kts | 166° |
| 2026-05-05 12:24 | 13.66693 | 120.98987 | 24894 ft | 394 kts | 166° |
| 2026-05-05 12:24 | 13.64018 | 120.99672 | 24895 ft | 395 kts | 166° |
| 2026-05-05 12:24 | 13.61457 | 121.00327 | 24896 ft | 394 kts | 166° |
| 2026-05-05 12:25 | 13.58771 | 121.01014 | 24900 ft | 394 kts | 166° |
| 2026-05-05 12:25 | 13.56119 | 121.01692 | 24898 ft | 395 kts | 166° |
| 2026-05-05 12:25 | 13.53446 | 121.02409 | 24901 ft | 394 kts | 163° |
| 2026-05-05 12:25 | 13.50841 | 121.03335 | 24902 ft | 393 kts | 157° |
| 2026-05-05 12:26 | 13.48408 | 121.04565 | 24910 ft | 393 kts | 150° |
| 2026-05-05 12:26 | 13.46041 | 121.06045 | 24925 ft | 393 kts | 147° |
| 2026-05-05 12:26 | 13.43789 | 121.07593 | 24943 ft | 394 kts | 145° |
| 2026-05-05 12:26 | 13.41536 | 121.09200 | 24956 ft | 393 kts | 145° |
| 2026-05-05 12:27 | 13.39273 | 121.10833 | 24963 ft | 392 kts | 145° |
| 2026-05-05 12:27 | 13.37025 | 121.12451 | 24967 ft | 392 kts | 145° |
| 2026-05-05 12:27 | 13.34789 | 121.14051 | 24973 ft | 393 kts | 145° |
| 2026-05-05 12:27 | 13.32533 | 121.15655 | 24974 ft | 393 kts | 145° |
| 2026-05-05 12:28 | 13.30264 | 121.17260 | 24972 ft | 394 kts | 145° |
| 2026-05-05 12:28 | 13.28024 | 121.18839 | 24967 ft | 394 kts | 145° |
| 2026-05-05 12:28 | 13.25762 | 121.20430 | 24957 ft | 393 kts | 145° |
| 2026-05-05 12:28 | 13.23513 | 121.22009 | 24943 ft | 392 kts | 145° |
| 2026-05-05 12:29 | 13.21243 | 121.23601 | 24933 ft | 392 kts | 145° |
| 2026-05-05 12:29 | 13.18981 | 121.25188 | 24926 ft | 391 kts | 145° |
| 2026-05-05 12:29 | 13.16729 | 121.26767 | 24928 ft | 392 kts | 145° |
| 2026-05-05 12:29 | 13.14462 | 121.28355 | 24934 ft | 393 kts | 146° |
| 2026-05-05 12:30 | 13.12189 | 121.29948 | 24934 ft | 392 kts | 146° |
| 2026-05-05 12:30 | 13.09950 | 121.31516 | 24938 ft | 392 kts | 146° |
| 2026-05-05 12:30 | 13.07684 | 121.33102 | 24944 ft | 393 kts | 146° |
| 2026-05-05 12:30 | 13.05442 | 121.34672 | 24945 ft | 393 kts | 146° |
| 2026-05-05 12:31 | 13.03180 | 121.36255 | 24944 ft | 392 kts | 146° |
| 2026-05-05 12:31 | 13.00894 | 121.37855 | 24944 ft | 392 kts | 145° |
| 2026-05-05 12:31 | 12.98638 | 121.39432 | 24938 ft | 392 kts | 145° |
| 2026-05-05 12:31 | 12.96378 | 121.41014 | 24933 ft | 389 kts | 145° |
| 2026-05-05 12:32 | 12.94131 | 121.42586 | 24890 ft | 381 kts | 145° |
| 2026-05-05 12:32 | 12.91934 | 121.44122 | 24669 ft | 386 kts | 145° |
| 2026-05-05 12:32 | 12.89704 | 121.45680 | 24266 ft | 385 kts | 145° |
| 2026-05-05 12:32 | 12.87501 | 121.47220 | 23769 ft | 383 kts | 145° |
| 2026-05-05 12:33 | 12.85291 | 121.48763 | 23255 ft | 380 kts | 145° |
| 2026-05-05 12:33 | 12.83112 | 121.50285 | 22743 ft | 377 kts | 145° |
| 2026-05-05 12:33 | 12.80948 | 121.51796 | 22237 ft | 375 kts | 145° |
| 2026-05-05 12:33 | 12.78798 | 121.53297 | 21740 ft | 372 kts | 145° |
| 2026-05-05 12:34 | 12.76665 | 121.54786 | 21238 ft | 370 kts | 144° |
| 2026-05-05 12:34 | 12.74543 | 121.56267 | 20735 ft | 367 kts | 144° |
| 2026-05-05 12:34 | 12.72436 | 121.57738 | 20227 ft | 365 kts | 144° |
| 2026-05-05 12:34 | 12.70338 | 121.59202 | 19728 ft | 362 kts | 144° |
| 2026-05-05 12:35 | 12.68268 | 121.60645 | 19232 ft | 360 kts | 144° |
| 2026-05-05 12:35 | 12.66187 | 121.62096 | 18739 ft | 357 kts | 144° |
| 2026-05-05 12:35 | 12.64155 | 121.63514 | 18281 ft | 353 kts | 144° |
| 2026-05-05 12:35 | 12.62143 | 121.64919 | 17807 ft | 350 kts | 144° |
| 2026-05-05 12:36 | 12.60134 | 121.66324 | 17326 ft | 348 kts | 144° |
| 2026-05-05 12:36 | 12.58134 | 121.67720 | 16853 ft | 345 kts | 144° |
| 2026-05-05 12:36 | 12.56153 | 121.69102 | 16390 ft | 343 kts | 144° |
| 2026-05-05 12:36 | 12.54189 | 121.70470 | 15920 ft | 340 kts | 144° |
| 2026-05-05 12:37 | 12.52223 | 121.71839 | 15444 ft | 338 kts | 144° |
| 2026-05-05 12:37 | 12.50280 | 121.73193 | 14979 ft | 335 kts | 144° |
| 2026-05-05 12:37 | 12.48350 | 121.74536 | 14515 ft | 333 kts | 144° |
| 2026-05-05 12:37 | 12.46458 | 121.75854 | 14062 ft | 330 kts | 143° |
| 2026-05-05 12:38 | 12.44570 | 121.77169 | 13605 ft | 327 kts | 143° |
| 2026-05-05 12:38 | 12.42687 | 121.78479 | 13129 ft | 325 kts | 143° |
| 2026-05-05 12:38 | 12.40829 | 121.79773 | 12674 ft | 322 kts | 143° |
| 2026-05-05 12:38 | 12.38984 | 121.81049 | 12374 ft | 314 kts | 145° |
| 2026-05-05 12:39 | 12.37077 | 121.82110 | 12082 ft | 308 kts | 157° |
| 2026-05-05 12:39 | 12.34973 | 121.82487 | 11693 ft | 309 kts | 181° |
| 2026-05-05 12:39 | 12.32843 | 121.82137 | 11283 ft | 309 kts | 191° |
| 2026-05-05 12:39 | 12.30748 | 121.81622 | 10852 ft | 308 kts | 192° |
| 2026-05-05 12:40 | 12.28647 | 121.81097 | 10426 ft | 306 kts | 191° |
| 2026-05-05 12:40 | 12.26591 | 121.80611 | 10175 ft | 298 kts | 190° |
| 2026-05-05 12:40 | 12.24608 | 121.80162 | 10023 ft | 287 kts | 190° |
| 2026-05-05 12:40 | 12.22653 | 121.79733 | 9687 ft | 285 kts | 189° |
| 2026-05-05 12:41 | 12.20714 | 121.79314 | 9319 ft | 284 kts | 189° |
| 2026-05-05 12:41 | 12.18774 | 121.78896 | 8968 ft | 282 kts | 189° |
| 2026-05-05 12:41 | 12.16835 | 121.78477 | 8612 ft | 281 kts | 189° |
| 2026-05-05 12:41 | 12.14921 | 121.78062 | 8265 ft | 280 kts | 189° |
| 2026-05-05 12:42 | 12.13022 | 121.77651 | 7919 ft | 279 kts | 189° |
| 2026-05-05 12:42 | 12.11100 | 121.77235 | 7562 ft | 280 kts | 189° |
| 2026-05-05 12:42 | 12.09205 | 121.76823 | 7214 ft | 278 kts | 189° |
| 2026-05-05 12:42 | 12.07307 | 121.76412 | 6866 ft | 277 kts | 189° |
| 2026-05-05 12:43 | 12.05412 | 121.76002 | 6520 ft | 276 kts | 189° |
| 2026-05-05 12:43 | 12.03539 | 121.75597 | 6178 ft | 274 kts | 189° |
| 2026-05-05 12:43 | 12.01654 | 121.75189 | 5827 ft | 273 kts | 188° |
| 2026-05-05 12:43 | 11.99805 | 121.74789 | 5486 ft | 272 kts | 188° |
| 2026-05-05 12:44 | 11.97950 | 121.74387 | 5264 ft | 266 kts | 189° |
| 2026-05-05 12:44 | 11.96178 | 121.74002 | 5189 ft | 254 kts | 188° |
| 2026-05-05 12:44 | 11.94480 | 121.73632 | 5114 ft | 244 kts | 188° |
| 2026-05-05 12:44 | 11.92857 | 121.73280 | 5039 ft | 234 kts | 188° |
| 2026-05-05 12:45 | 11.91261 | 121.73064 | 4949 ft | 225 kts | 174° |
| 2026-05-05 12:45 | 11.89746 | 121.73427 | 4728 ft | 219 kts | 149° |
| 2026-05-05 12:45 | 11.88438 | 121.74179 | 4483 ft | 217 kts | 145° |
| 2026-05-05 12:45 | 11.87121 | 121.74952 | 4257 ft | 215 kts | 147° |
| 2026-05-05 12:46 | 11.85819 | 121.75666 | 4069 ft | 209 kts | 145° |
| 2026-05-05 12:46 | 11.84690 | 121.76532 | 3900 ft | 198 kts | 125° |
| 2026-05-05 12:46 | 11.84197 | 121.77762 | 3801 ft | 179 kts | 93° |
| 2026-05-05 12:46 | 11.84296 | 121.79008 | 3530 ft | 178 kts | 76° |
| 2026-05-05 12:47 | 11.84748 | 121.80168 | 3256 ft | 177 kts | 63° |
| 2026-05-05 12:47 | 11.85345 | 121.81277 | 2985 ft | 176 kts | 62° |
| 2026-05-05 12:47 | 11.85917 | 121.82371 | 2763 ft | 171 kts | 63° |
| 2026-05-05 12:47 | 11.86452 | 121.83430 | 2515 ft | 167 kts | 64° |
| 2026-05-05 12:48 | 11.86977 | 121.84479 | 2290 ft | 159 kts | 64° |
| 2026-05-05 12:48 | 11.87454 | 121.85427 | 2124 ft | 143 kts | 64° |
| 2026-05-05 12:48 | 11.87886 | 121.86287 | 1904 ft | 130 kts | 64° |
| 2026-05-05 12:48 | 11.88288 | 121.87091 | 1717 ft | 127 kts | 64° |
| 2026-05-05 12:49 | 11.88691 | 121.87895 | 1552 ft | 127 kts | 64° |
| 2026-05-05 12:49 | 11.89095 | 121.88702 | 1384 ft | 128 kts | 64° |
| 2026-05-05 12:49 | 11.89508 | 121.89521 | 1218 ft | 129 kts | 64° |
| 2026-05-05 12:49 | 11.89916 | 121.90338 | 1044 ft | 128 kts | 64° |
| 2026-05-05 12:50 | 11.90320 | 121.91158 | 858 ft | 129 kts | 64° |
| 2026-05-05 12:50 | 11.90734 | 121.91978 | 670 ft | 129 kts | 63° |
| 2026-05-05 12:50 | 11.91159 | 121.92794 | 495 ft | 128 kts | 63° |
| 2026-05-05 12:50 | 11.91561 | 121.93599 | 331 ft | 127 kts | 65° |
| 2026-05-05 12:51 | 11.91959 | 121.94399 | 166 ft | 126 kts | 64° |
| 2026-05-05 12:51 | 11.92355 | 121.95194 | 31 ft | 123 kts | 64° |
| 2026-05-05 12:51 | 11.92662 | 121.95808 | 43 ft | 57 kts | 63° |
| 2026-05-05 12:51 | 11.92767 | 121.96021 | 53 ft | 27 kts | 62° |
| 2026-05-05 12:52 | 11.92802 | 121.96101 | 56 ft | 5 kts | 94° |
| 2026-05-05 12:52 | 11.92779 | 121.96125 | 56 ft | 4 kts | 149° |
| 2026-05-05 12:52 | 11.92748 | 121.96141 | 56 ft | 5 kts | 154° |
| 2026-05-05 12:52 | 11.92697 | 121.96167 | 55 ft | 7 kts | 153° |
| 2026-05-05 12:53 | 11.92649 | 121.96194 | 55 ft | 7 kts | 137° |
| 2026-05-05 12:53 | 11.92642 | 121.96220 | 56 ft | 3 kts | 81° |
| 2026-05-05 12:53 | 11.92655 | 121.96252 | 57 ft | 5 kts | 64° |
| 2026-05-05 12:53 | 11.92670 | 121.96285 | 57 ft | 4 kts | 64° |
| 2026-05-05 12:54 | 11.92689 | 121.96321 | 58 ft | 5 kts | 62° |
| 2026-05-05 12:54 | 11.92689 | 121.96344 | 59 ft | 3 kts | 138° |
| 2026-05-05 12:54 | 11.92669 | 121.96355 | 59 ft | 3 kts | 154° |
| 2026-05-05 12:55 | 11.92652 | 121.96365 | 59 ft | 1 kts | 152° |
| 2026-05-05 12:55 | 11.92650 | 121.96365 | 59 ft | 0 kts | 152° |